createdAt,value
2019-03-01T00:00:33.414Z,24.40
2019-03-01T00:01:33.429Z,16.70
2019-03-01T00:02:33.391Z,20.20
2019-03-01T00:03:33.386Z,17.90
2019-03-01T00:04:33.378Z,15.70
2019-03-01T00:05:33.397Z,14.20
2019-03-01T00:06:33.371Z,16.30
2019-03-01T00:07:33.338Z,17.00
2019-03-01T00:08:33.348Z,13.20
2019-03-01T00:09:33.325Z,15.80
2019-03-01T00:10:33.303Z,15.00
2019-03-01T00:11:33.321Z,16.60
2019-03-01T00:12:33.286Z,15.10
2019-03-01T00:13:33.274Z,15.00
2019-03-01T00:14:33.269Z,14.10
2019-03-01T00:15:33.249Z,15.40
2019-03-01T00:16:33.239Z,17.10
2019-03-01T00:17:33.259Z,14.40
2019-03-01T00:18:33.245Z,14.30
2019-03-01T00:19:33.226Z,13.90
2019-03-01T00:20:33.198Z,14.40
2019-03-01T00:21:33.186Z,14.60
2019-03-01T00:22:33.204Z,13.30
2019-03-01T00:23:33.163Z,13.30
2019-03-01T00:24:33.158Z,12.40
2019-03-01T00:25:33.171Z,12.80
2019-03-01T00:26:33.128Z,14.20
2019-03-01T00:27:33.139Z,11.70
2019-03-01T00:28:33.106Z,11.30
2019-03-01T00:29:33.093Z,15.80
2019-03-01T00:30:33.087Z,10.70
2019-03-01T00:31:33.113Z,11.30
2019-03-01T00:32:33.084Z,10.00
2019-03-01T00:33:33.049Z,11.90
2019-03-01T00:34:33.042Z,11.40
2019-03-01T00:35:33.029Z,11.30
2019-03-01T00:36:33.025Z,14.70
2019-03-01T00:37:33.068Z,11.30
2019-03-01T00:38:32.996Z,10.50
2019-03-01T00:39:32.988Z,11.70
2019-03-01T00:40:32.973Z,12.50
2019-03-01T00:41:32.971Z,11.10
2019-03-01T00:42:32.989Z,12.70
2019-03-01T00:43:32.941Z,14.00
2019-03-01T00:44:32.950Z,13.20
2019-03-01T00:45:32.919Z,12.10
2019-03-01T00:46:32.907Z,11.30
2019-03-01T00:47:32.896Z,11.90
2019-03-01T00:48:32.911Z,9.90
2019-03-01T00:49:32.872Z,10.70
2019-03-01T00:50:32.888Z,13.20
2019-03-01T00:51:32.851Z,11.50
2019-03-01T00:52:32.841Z,11.10
2019-03-01T00:53:32.853Z,11.90
2019-03-01T00:54:32.820Z,12.60
2019-03-01T00:55:32.808Z,9.60
2019-03-01T00:56:32.809Z,10.00
2019-03-01T00:57:32.788Z,10.70
2019-03-01T00:58:32.797Z,12.10
2019-03-01T00:59:32.764Z,10.40
2019-03-01T01:00:32.754Z,11.40
2019-03-01T01:01:32.743Z,10.90
2019-03-01T01:02:32.768Z,9.20
2019-03-01T01:03:32.749Z,11.00
2019-03-01T01:04:32.712Z,10.10
2019-03-01T01:05:32.697Z,9.60
2019-03-01T01:06:32.705Z,8.80
2019-03-01T01:07:32.678Z,8.50
2019-03-01T01:08:32.688Z,10.10
2019-03-01T01:09:32.678Z,10.20
2019-03-01T01:10:32.647Z,10.20
2019-03-01T01:11:32.634Z,10.30
2019-03-01T01:12:32.622Z,9.90
2019-03-01T01:13:32.614Z,10.90
2019-03-01T01:14:32.654Z,8.30
2019-03-01T01:15:32.588Z,8.10
2019-03-01T01:16:32.579Z,10.20
2019-03-01T01:17:32.567Z,10.10
2019-03-01T01:18:32.555Z,9.20
2019-03-01T01:19:32.567Z,9.10
2019-03-01T01:20:32.545Z,8.60
2019-03-01T01:21:32.526Z,7.10
2019-03-01T01:22:32.512Z,8.00
2019-03-01T01:23:32.520Z,11.60
2019-03-01T01:24:32.517Z,10.10
2019-03-01T01:25:32.476Z,8.50
2019-03-01T01:26:32.501Z,10.00
2019-03-01T01:27:32.456Z,8.70
2019-03-01T01:28:32.442Z,7.80
2019-03-01T01:29:32.454Z,7.30
2019-03-01T01:30:32.420Z,8.40
2019-03-01T01:31:32.437Z,8.10
2019-03-01T01:32:32.402Z,8.50
2019-03-01T01:33:32.388Z,11.10
2019-03-01T01:34:32.402Z,11.50
2019-03-01T01:35:32.370Z,9.80
2019-03-01T01:36:32.355Z,7.90
2019-03-01T01:37:32.343Z,9.00
2019-03-01T01:38:32.354Z,9.30
2019-03-01T01:39:32.353Z,10.50
2019-03-01T01:40:32.315Z,9.10
2019-03-01T01:41:32.317Z,11.30
2019-03-01T01:42:32.290Z,10.30
2019-03-01T01:43:32.279Z,9.90
2019-03-01T01:44:32.310Z,7.40
2019-03-01T01:45:32.257Z,11.70
2019-03-01T01:46:32.244Z,7.70
2019-03-01T01:47:32.236Z,10.20
2019-03-01T01:48:32.226Z,8.50
2019-03-01T01:49:32.235Z,8.80
2019-03-01T01:50:32.239Z,7.50
2019-03-01T01:51:32.194Z,9.70
2019-03-01T01:52:32.177Z,9.10
2019-03-01T01:53:32.168Z,9.50
2019-03-01T01:54:32.178Z,9.70
2019-03-01T01:55:32.147Z,11.00
2019-03-01T01:56:32.132Z,10.40
2019-03-01T01:57:32.140Z,8.80
2019-03-01T01:58:32.125Z,8.70
2019-03-01T01:59:32.135Z,10.30
2019-03-01T02:00:32.089Z,9.00
2019-03-01T02:01:32.077Z,9.40
2019-03-01T02:02:32.066Z,10.70
2019-03-01T02:03:32.073Z,10.80
2019-03-01T02:04:32.055Z,10.00
2019-03-01T02:05:32.057Z,10.70
2019-03-01T02:06:32.025Z,12.30
2019-03-01T02:07:32.012Z,10.50
2019-03-01T02:08:32.000Z,10.80
2019-03-01T02:09:32.011Z,9.20
2019-03-01T02:10:32.008Z,10.50
2019-03-01T02:11:31.970Z,7.40
2019-03-01T02:12:31.956Z,9.80
2019-03-01T02:13:31.944Z,9.40
2019-03-01T02:14:31.942Z,8.80
2019-03-01T02:15:31.949Z,10.70
2019-03-01T02:16:31.925Z,12.40
2019-03-01T02:17:31.900Z,13.10
2019-03-01T02:18:31.890Z,8.20
2019-03-01T02:19:31.877Z,9.80
2019-03-01T02:20:31.892Z,10.50
2019-03-01T02:21:31.859Z,8.70
2019-03-01T02:22:31.876Z,8.80
2019-03-01T02:23:31.836Z,8.30
2019-03-01T02:24:31.834Z,10.40
2019-03-01T02:25:31.836Z,9.00
2019-03-01T02:26:31.801Z,7.70
2019-03-01T02:27:31.790Z,8.10
2019-03-01T02:28:31.779Z,8.90
2019-03-01T02:29:31.812Z,9.60
2019-03-01T02:30:31.792Z,8.60
2019-03-01T02:31:31.748Z,9.90
2019-03-01T02:32:31.739Z,9.70
2019-03-01T02:33:31.724Z,8.30
2019-03-01T02:34:31.718Z,8.10
2019-03-01T02:35:31.739Z,6.50
2019-03-01T02:36:31.699Z,9.30
2019-03-01T02:37:31.690Z,10.10
2019-03-01T02:38:31.670Z,9.70
2019-03-01T02:39:31.659Z,11.00
2019-03-01T02:40:31.682Z,10.80
2019-03-01T02:41:31.638Z,7.70
2019-03-01T02:42:31.634Z,11.30
2019-03-01T02:43:31.613Z,7.80
2019-03-01T02:44:31.602Z,11.80
2019-03-01T02:45:31.635Z,10.60
2019-03-01T02:46:31.581Z,10.60
2019-03-01T02:47:31.591Z,12.10
2019-03-01T02:48:31.572Z,9.50
2019-03-01T02:49:31.550Z,9.80
2019-03-01T02:50:31.540Z,9.00
2019-03-01T02:51:31.552Z,9.00
2019-03-01T02:52:31.530Z,10.80
2019-03-01T02:53:31.513Z,9.30
2019-03-01T02:54:31.513Z,10.80
2019-03-01T02:55:31.492Z,7.90
2019-03-01T02:56:31.508Z,9.70
2019-03-01T02:57:31.460Z,13.30
2019-03-01T02:58:31.449Z,12.00
2019-03-01T02:59:31.438Z,8.00
2019-03-01T03:00:31.429Z,11.10
2019-03-01T03:01:31.447Z,10.40
2019-03-01T03:02:31.403Z,9.90
2019-03-01T03:03:31.393Z,10.50
2019-03-01T03:04:31.386Z,10.90
2019-03-01T03:05:31.370Z,12.00
2019-03-01T03:06:31.382Z,12.80
2019-03-01T03:07:31.385Z,11.30
2019-03-01T03:08:31.336Z,11.50
2019-03-01T03:09:31.341Z,9.50
2019-03-01T03:10:31.317Z,9.10
2019-03-01T03:11:31.336Z,9.30
2019-03-01T03:12:31.307Z,10.90
2019-03-01T03:13:31.329Z,12.60
2019-03-01T03:14:31.310Z,8.70
2019-03-01T03:15:31.262Z,10.40
2019-03-01T03:16:31.280Z,12.00
2019-03-01T03:17:31.238Z,14.70
2019-03-01T03:18:31.227Z,10.50
2019-03-01T03:19:31.246Z,11.30
2019-03-01T03:20:31.217Z,12.10
2019-03-01T03:21:31.222Z,11.80
2019-03-01T03:22:31.188Z,15.70
2019-03-01T03:23:31.174Z,15.00
2019-03-01T03:24:31.165Z,14.10
2019-03-01T03:25:31.175Z,18.30
2019-03-01T03:26:31.165Z,9.80
2019-03-01T03:27:31.140Z,10.40
2019-03-01T03:28:31.119Z,14.50
2019-03-01T03:29:31.106Z,11.40
2019-03-01T03:30:31.105Z,11.50
2019-03-01T03:31:31.256Z,9.90
2019-03-01T03:32:31.072Z,10.30
2019-03-01T03:33:31.101Z,12.30
2019-03-01T03:34:31.053Z,11.60
2019-03-01T03:35:31.040Z,12.70
2019-03-01T03:36:31.032Z,12.10
2019-03-01T03:37:31.058Z,10.90
2019-03-01T03:38:31.013Z,10.50
2019-03-01T03:39:31.016Z,12.30
2019-03-01T03:40:30.984Z,15.70
2019-03-01T03:41:30.974Z,13.60
2019-03-01T03:42:30.998Z,11.40
2019-03-01T03:43:30.983Z,14.50
2019-03-01T03:44:30.940Z,10.80
2019-03-01T03:45:30.935Z,10.50
2019-03-01T03:46:30.918Z,11.40
2019-03-01T03:47:30.937Z,11.00
2019-03-01T03:48:30.897Z,12.20
2019-03-01T03:49:30.900Z,11.40
2019-03-01T03:50:30.875Z,13.80
2019-03-01T03:51:30.869Z,9.10
2019-03-01T03:52:30.884Z,10.70
2019-03-01T03:53:30.842Z,7.00
2019-03-01T03:54:30.848Z,10.80
2019-03-01T03:55:30.826Z,8.80
2019-03-01T03:56:30.827Z,10.50
2019-03-01T03:57:30.820Z,7.20
2019-03-01T03:58:30.794Z,8.20
2019-03-01T03:59:30.778Z,6.90
2019-03-01T04:00:30.767Z,7.80
2019-03-01T04:01:30.754Z,8.80
2019-03-01T04:02:30.792Z,6.60
2019-03-01T04:03:30.731Z,8.30
2019-03-01T04:04:30.721Z,6.30
2019-03-01T04:05:30.715Z,7.90
2019-03-01T04:06:30.699Z,9.80
2019-03-01T04:07:30.715Z,8.40
2019-03-01T04:08:30.691Z,8.30
2019-03-01T04:09:30.663Z,8.50
2019-03-01T04:10:30.655Z,8.60
2019-03-01T04:11:30.644Z,10.90
2019-03-01T04:12:30.818Z,8.80
2019-03-01T04:13:30.628Z,6.20
2019-03-01T04:14:30.630Z,7.20
2019-03-01T04:15:30.600Z,7.80
2019-03-01T04:16:30.622Z,7.20
2019-03-01T04:17:30.577Z,8.70
2019-03-01T04:18:30.589Z,7.00
2019-03-01T04:19:30.556Z,7.70
2019-03-01T04:20:30.571Z,8.60
2019-03-01T04:21:30.534Z,8.60
2019-03-01T04:22:30.535Z,11.00
2019-03-01T04:23:30.536Z,10.20
2019-03-01T04:24:30.522Z,8.70
2019-03-01T04:25:30.490Z,11.60
2019-03-01T04:26:30.497Z,7.20
2019-03-01T04:27:30.468Z,13.00
2019-03-01T04:28:30.479Z,9.10
2019-03-01T04:29:30.444Z,7.00
2019-03-01T04:30:30.437Z,10.10
2019-03-01T04:31:30.427Z,8.30
2019-03-01T04:32:30.427Z,8.20
2019-03-01T04:33:30.430Z,9.20
2019-03-01T04:34:30.390Z,10.10
2019-03-01T04:35:30.376Z,8.10
2019-03-01T04:36:30.368Z,11.30
2019-03-01T04:37:30.357Z,9.30
2019-03-01T04:38:30.388Z,9.80
2019-03-01T04:39:30.336Z,7.80
2019-03-01T04:40:30.323Z,10.30
2019-03-01T04:41:30.314Z,10.50
2019-03-01T04:42:30.301Z,9.00
2019-03-01T04:43:30.316Z,9.00
2019-03-01T04:44:30.286Z,9.00
2019-03-01T04:45:30.290Z,11.80
2019-03-01T04:46:30.260Z,11.50
2019-03-01T04:47:30.254Z,13.40
2019-03-01T04:48:30.271Z,10.40
2019-03-01T04:49:30.238Z,10.20
2019-03-01T04:50:30.213Z,8.10
2019-03-01T04:51:30.217Z,10.00
2019-03-01T04:52:30.198Z,10.60
2019-03-01T04:53:30.186Z,9.60
2019-03-01T04:54:30.192Z,8.80
2019-03-01T04:55:30.162Z,7.60
2019-03-01T04:56:30.147Z,8.60
2019-03-01T04:57:30.163Z,7.60
2019-03-01T04:58:30.127Z,6.10
2019-03-01T04:59:30.140Z,8.00
2019-03-01T05:00:30.103Z,5.10
2019-03-01T05:01:30.092Z,8.70
2019-03-01T05:02:30.081Z,7.00
2019-03-01T05:03:30.083Z,8.10
2019-03-01T05:04:30.087Z,5.90
2019-03-01T05:05:30.048Z,5.40
2019-03-01T05:06:30.044Z,7.90
2019-03-01T05:07:30.038Z,6.80
2019-03-01T05:08:30.016Z,7.90
2019-03-01T05:09:30.073Z,8.30
2019-03-01T05:10:29.994Z,8.00
2019-03-01T05:11:29.988Z,5.60
2019-03-01T05:12:29.974Z,10.50
2019-03-01T05:13:29.978Z,9.40
2019-03-01T05:14:29.973Z,7.30
2019-03-01T05:15:29.960Z,7.90
2019-03-01T05:16:29.952Z,5.80
2019-03-01T05:17:29.920Z,6.50
2019-03-01T05:18:29.909Z,7.80
2019-03-01T05:19:29.920Z,7.20
2019-03-01T05:20:31.148Z,7.80
2019-03-01T05:21:29.873Z,5.60
2019-03-01T05:22:29.893Z,8.50
2019-03-01T05:23:29.853Z,8.30
2019-03-01T05:24:29.865Z,6.90
2019-03-01T05:25:29.829Z,5.20
2019-03-01T05:26:29.821Z,6.30
2019-03-01T05:27:29.813Z,5.60
2019-03-01T05:28:29.806Z,8.20
2019-03-01T05:29:29.824Z,5.40
2019-03-01T05:30:29.774Z,7.30
2019-03-01T05:31:29.767Z,6.80
2019-03-01T05:32:29.752Z,6.30
2019-03-01T05:33:29.741Z,5.30
2019-03-01T05:34:29.778Z,5.00
2019-03-01T05:35:29.736Z,4.40
2019-03-01T05:36:29.709Z,4.50
2019-03-01T05:37:29.707Z,8.90
2019-03-01T05:38:29.686Z,10.90
2019-03-01T05:39:29.699Z,13.40
2019-03-01T05:40:29.664Z,12.30
2019-03-01T05:41:29.670Z,13.20
2019-03-01T05:42:29.645Z,11.40
2019-03-01T05:43:29.631Z,10.40
2019-03-01T05:44:29.646Z,10.90
2019-03-01T05:45:29.610Z,10.40
2019-03-01T05:46:29.598Z,9.80
2019-03-01T05:47:29.604Z,10.60
2019-03-01T05:48:29.578Z,12.10
2019-03-01T05:49:29.588Z,14.00
2019-03-01T05:50:29.555Z,14.50
2019-03-01T05:51:29.550Z,13.90
2019-03-01T05:52:29.540Z,12.90
2019-03-01T05:53:29.537Z,17.60
2019-03-01T05:54:29.799Z,12.50
2019-03-01T05:55:29.499Z,13.60
2019-03-01T05:56:29.498Z,15.20
2019-03-01T05:57:29.480Z,10.00
2019-03-01T05:58:29.488Z,10.40
2019-03-01T05:59:29.463Z,12.40
2019-03-01T06:00:29.484Z,11.60
2019-03-01T06:01:29.439Z,11.70
2019-03-01T06:02:29.424Z,10.60
2019-03-01T06:03:29.412Z,13.00
2019-03-01T06:04:29.401Z,11.20
2019-03-01T06:05:29.436Z,10.90
2019-03-01T06:06:29.401Z,9.10
2019-03-01T06:07:29.368Z,11.30
2019-03-01T06:08:29.356Z,10.50
2019-03-01T06:09:29.358Z,9.70
2019-03-01T06:10:29.378Z,9.70
2019-03-01T06:11:29.326Z,9.80
2019-03-01T06:12:29.314Z,9.80
2019-03-01T06:13:29.310Z,12.40
2019-03-01T06:14:29.299Z,10.60
2019-03-01T06:15:29.305Z,14.70
2019-03-01T06:16:29.273Z,9.40
2019-03-01T06:17:29.261Z,14.00
2019-03-01T06:18:29.250Z,13.00
2019-03-01T06:19:29.254Z,10.60
2019-03-01T06:20:29.267Z,10.60
2019-03-01T06:21:29.216Z,12.90
2019-03-01T06:22:29.208Z,21.20
2019-03-01T06:23:29.194Z,12.70
2019-03-01T06:24:29.182Z,15.70
2019-03-01T06:25:29.191Z,15.10
2019-03-01T06:26:29.192Z,15.70
2019-03-01T06:27:29.153Z,14.50
2019-03-01T06:28:29.138Z,18.50
2019-03-01T06:29:29.130Z,17.10
2019-03-01T06:30:29.117Z,17.40
2019-03-01T06:31:29.147Z,17.20
2019-03-01T06:32:29.095Z,19.80
2019-03-01T06:33:29.084Z,21.10
2019-03-01T06:34:29.076Z,24.50
2019-03-01T06:35:29.062Z,23.80
2019-03-01T06:36:29.077Z,28.80
2019-03-01T06:37:29.061Z,30.20
2019-03-01T06:38:29.032Z,34.00
2019-03-01T06:39:29.023Z,39.00
2019-03-01T06:40:29.009Z,38.40
2019-03-01T06:41:29.022Z,40.80
2019-03-01T06:42:28.988Z,41.70
2019-03-01T06:43:29.001Z,45.10
2019-03-01T06:44:28.964Z,43.80
2019-03-01T06:45:28.954Z,46.90
2019-03-01T06:46:28.984Z,46.00
2019-03-01T06:47:28.933Z,49.10
2019-03-01T06:48:28.921Z,49.10
2019-03-01T06:49:28.936Z,54.70
2019-03-01T06:50:28.910Z,48.60
2019-03-01T06:51:29.370Z,52.40
2019-03-01T06:52:28.907Z,50.10
2019-03-01T06:53:28.869Z,47.00
2019-03-01T06:54:28.857Z,48.30
2019-03-01T06:55:28.845Z,46.90
2019-03-01T06:56:28.832Z,46.90
2019-03-01T06:57:28.873Z,45.40
2019-03-01T06:58:28.813Z,45.00
2019-03-01T06:59:28.798Z,45.30
2019-03-01T07:00:28.792Z,47.60
2019-03-01T07:01:28.779Z,45.70
2019-03-01T07:02:28.789Z,45.30
2019-03-01T07:03:28.774Z,43.60
2019-03-01T07:04:28.743Z,45.80
2019-03-01T07:05:28.736Z,44.90
2019-03-01T07:06:28.724Z,42.80
2019-03-01T07:07:28.741Z,46.50
2019-03-01T07:08:28.709Z,42.60
2019-03-01T07:09:28.697Z,45.20
2019-03-01T07:10:28.683Z,50.80
2019-03-01T07:11:28.686Z,50.40
2019-03-01T07:12:28.683Z,48.70
2019-03-01T07:13:28.653Z,45.50
2019-03-01T07:14:28.649Z,54.90
2019-03-01T07:15:28.642Z,47.60
2019-03-01T07:16:28.615Z,44.00
2019-03-01T07:17:28.747Z,48.00
2019-03-01T07:18:28.598Z,48.40
2019-03-01T07:19:28.580Z,43.40
2019-03-01T07:20:28.568Z,44.90
2019-03-01T07:21:28.638Z,43.90
2019-03-01T07:22:28.549Z,50.80
2019-03-01T07:23:36.562Z,43.80
2019-03-01T07:24:29.523Z,47.20
2019-03-01T07:25:28.513Z,47.40
2019-03-01T07:26:28.503Z,51.20
2019-03-01T07:27:28.534Z,52.30
2019-03-01T07:28:28.507Z,50.80
2019-03-01T07:29:28.469Z,49.70
2019-03-01T07:30:28.459Z,48.80
2019-03-01T07:31:28.445Z,50.80
2019-03-01T07:32:28.436Z,47.40
2019-03-01T07:33:28.460Z,47.40
2019-03-01T07:34:28.415Z,49.60
2019-03-01T07:35:28.402Z,49.80
2019-03-01T07:36:28.393Z,50.20
2019-03-01T07:37:28.383Z,44.20
2019-03-01T07:38:28.404Z,49.80
2019-03-01T07:39:28.373Z,48.80
2019-03-01T07:40:28.349Z,48.20
2019-03-01T07:41:28.337Z,47.70
2019-03-01T07:42:28.326Z,44.60
2019-03-01T07:43:28.344Z,48.80
2019-03-01T07:44:28.304Z,47.70
2019-03-01T07:45:28.317Z,52.60
2019-03-01T07:46:28.281Z,51.60
2019-03-01T07:47:28.270Z,47.40
2019-03-01T07:48:28.300Z,52.60
2019-03-01T07:49:28.250Z,53.10
2019-03-01T07:50:28.235Z,54.80
2019-03-01T07:51:30.757Z,51.50
2019-03-01T07:52:28.213Z,50.50
2019-03-01T07:53:28.210Z,60.20
2019-03-01T07:54:28.217Z,59.00
2019-03-01T07:55:29.404Z,58.00
2019-03-01T07:56:28.168Z,53.30
2019-03-01T07:57:28.188Z,54.50
2019-03-01T07:58:28.148Z,52.70
2019-03-01T07:59:28.159Z,51.00
2019-03-01T08:00:28.125Z,54.90
2019-03-01T08:01:29.203Z,63.50
2019-03-01T08:02:28.104Z,62.10
2019-03-01T08:03:28.114Z,61.70
2019-03-01T08:04:29.536Z,59.80
2019-03-01T08:05:28.070Z,63.40
2019-03-01T08:06:28.070Z,54.40
2019-03-01T08:07:28.048Z,52.60
2019-03-01T08:08:28.036Z,52.10
2019-03-01T08:09:28.091Z,56.10
2019-03-01T08:10:28.014Z,51.50
2019-03-01T08:11:28.483Z,54.10
2019-03-01T08:12:27.992Z,54.40
2019-03-01T08:13:27.980Z,55.60
2019-03-01T08:14:30.447Z,56.60
2019-03-01T08:15:27.980Z,60.00
2019-03-01T08:16:27.948Z,60.90
2019-03-01T08:17:31.582Z,63.60
2019-03-01T08:18:27.927Z,65.30
2019-03-01T08:19:27.947Z,64.20
2019-03-01T08:20:30.340Z,64.90
2019-03-01T08:21:28.912Z,82.20
2019-03-01T08:22:27.888Z,95.70
2019-03-01T08:23:27.873Z,85.50
2019-03-01T08:24:27.888Z,96.60
2019-03-01T08:25:28.556Z,111.20
2019-03-01T08:26:30.692Z,124.60
2019-03-01T08:27:28.826Z,121.20
2019-03-01T08:28:27.829Z,129.10
2019-03-01T08:29:30.702Z,143.70
2019-03-01T08:30:28.818Z,153.10
2019-03-01T08:31:27.787Z,147.50
2019-03-01T08:32:30.748Z,149.60
2019-03-01T08:33:27.762Z,153.20
2019-03-01T08:34:27.756Z,156.70
2019-03-01T08:35:28.609Z,161.90
2019-03-01T08:36:27.733Z,173.40
2019-03-01T08:37:27.718Z,182.00
2019-03-01T08:38:28.894Z,196.20
2019-03-01T08:39:27.695Z,209.90
2019-03-01T08:40:27.724Z,212.50
2019-03-01T08:41:27.671Z,217.20
2019-03-01T08:42:27.669Z,229.00
2019-03-01T08:43:27.665Z,203.30
2019-03-01T08:44:27.649Z,216.90
2019-03-01T08:45:29.785Z,231.20
2019-03-01T08:46:27.631Z,241.10
2019-03-01T08:47:27.607Z,226.90
2019-03-01T08:48:30.589Z,233.00
2019-03-01T08:49:28.582Z,243.80
2019-03-01T08:50:27.596Z,219.80
2019-03-01T08:51:27.666Z,209.60
2019-03-01T08:52:27.574Z,215.80
2019-03-01T08:53:27.539Z,213.90
2019-03-01T08:54:27.688Z,191.80
2019-03-01T08:55:27.552Z,178.20
2019-03-01T08:56:27.506Z,185.40
2019-03-01T08:57:27.562Z,211.00
2019-03-01T08:58:27.487Z,191.10
2019-03-01T08:59:27.473Z,207.40
2019-03-01T09:00:28.137Z,210.40
2019-03-01T09:01:27.476Z,198.50
2019-03-01T09:02:27.441Z,192.20
2019-03-01T09:03:27.467Z,217.00
2019-03-01T09:04:27.417Z,191.60
2019-03-01T09:05:27.406Z,216.80
2019-03-01T09:06:27.419Z,202.80
2019-03-01T09:07:30.212Z,190.40
2019-03-01T09:08:27.374Z,213.70
2019-03-01T09:09:27.374Z,239.50
2019-03-01T09:10:29.296Z,228.80
2019-03-01T09:11:27.377Z,247.20
2019-03-01T09:12:27.331Z,228.20
2019-03-01T09:13:27.321Z,233.30
2019-03-01T09:14:27.618Z,242.80
2019-03-01T09:15:27.305Z,259.20
2019-03-01T09:16:27.336Z,253.20
2019-03-01T09:17:27.272Z,271.80
2019-03-01T09:18:27.275Z,254.60
2019-03-01T09:19:27.266Z,263.60
2019-03-01T09:20:27.239Z,246.40
2019-03-01T09:21:27.267Z,260.10
2019-03-01T09:22:28.019Z,267.70
2019-03-01T09:23:27.433Z,230.20
2019-03-01T09:24:29.159Z,234.80
2019-03-01T09:25:27.185Z,254.60
2019-03-01T09:26:27.176Z,273.40
2019-03-01T09:27:30.318Z,283.80
2019-03-01T09:28:27.154Z,253.80
2019-03-01T09:29:27.147Z,261.60
2019-03-01T09:30:27.132Z,249.50
2019-03-01T09:31:27.120Z,282.50
2019-03-01T09:32:27.134Z,266.70
2019-03-01T09:33:27.097Z,296.60
2019-03-01T09:34:28.670Z,282.20
2019-03-01T09:35:27.085Z,267.60
2019-03-01T09:36:27.065Z,268.60
2019-03-01T09:37:29.666Z,237.10
2019-03-01T09:38:28.041Z,248.80
2019-03-01T09:39:27.031Z,235.40
2019-03-01T09:40:28.858Z,227.00
2019-03-01T09:41:27.021Z,228.20
2019-03-01T09:42:27.023Z,226.10
2019-03-01T09:43:27.855Z,226.20
2019-03-01T09:44:26.975Z,225.20
2019-03-01T09:45:35.779Z,218.70
2019-03-01T09:46:28.303Z,225.70
2019-03-01T09:47:26.989Z,232.30
2019-03-01T09:48:26.933Z,240.00
2019-03-01T09:49:26.920Z,237.30
2019-03-01T09:50:26.914Z,245.70
2019-03-01T09:51:26.901Z,230.10
2019-03-01T09:52:26.912Z,229.10
2019-03-01T09:53:26.900Z,241.40
2019-03-01T09:54:26.867Z,245.40
2019-03-01T09:55:26.856Z,257.60
2019-03-01T09:56:26.846Z,260.40
2019-03-01T09:57:26.859Z,251.60
2019-03-01T09:58:26.823Z,249.10
2019-03-01T09:59:26.820Z,239.50
2019-03-01T10:00:26.802Z,251.10
2019-03-01T10:01:26.794Z,241.90
2019-03-01T10:02:26.805Z,251.90
2019-03-01T10:03:26.780Z,198.10
2019-03-01T10:04:26.757Z,214.90
2019-03-01T10:05:26.756Z,222.80
2019-03-01T10:06:26.737Z,206.70
2019-03-01T10:07:26.760Z,201.90
2019-03-01T10:08:26.715Z,244.60
2019-03-01T10:09:26.703Z,216.40
2019-03-01T10:10:26.692Z,232.00
2019-03-01T10:11:26.701Z,231.90
2019-03-01T10:12:26.681Z,229.90
2019-03-01T10:13:26.686Z,238.70
2019-03-01T10:14:26.648Z,237.80
2019-03-01T10:15:26.638Z,220.80
2019-03-01T10:16:26.629Z,233.50
2019-03-01T10:17:26.639Z,243.00
2019-03-01T10:18:26.628Z,244.00
2019-03-01T10:19:26.594Z,229.50
2019-03-01T10:20:26.588Z,226.70
2019-03-01T10:21:26.576Z,239.50
2019-03-01T10:22:26.567Z,242.80
2019-03-01T10:23:26.586Z,245.60
2019-03-01T10:24:26.542Z,241.50
2019-03-01T10:25:26.530Z,243.10
2019-03-01T10:26:26.518Z,228.70
2019-03-01T10:27:26.507Z,244.90
2019-03-01T10:28:26.523Z,252.00
2019-03-01T10:29:26.489Z,256.50
2019-03-01T10:30:26.473Z,250.10
2019-03-01T10:31:26.463Z,261.20
2019-03-01T10:32:26.453Z,274.40
2019-03-01T10:33:26.471Z,275.60
2019-03-01T10:34:26.432Z,274.60
2019-03-01T10:35:26.428Z,273.00
2019-03-01T10:36:26.410Z,284.90
2019-03-01T10:37:26.397Z,270.70
2019-03-01T10:38:26.389Z,272.40
2019-03-01T10:39:26.400Z,298.50
2019-03-01T10:40:26.370Z,305.60
2019-03-01T10:41:26.359Z,300.00
2019-03-01T10:42:26.354Z,305.60
2019-03-01T10:43:26.333Z,339.90
2019-03-01T10:44:26.346Z,287.20
2019-03-01T10:45:26.315Z,289.70
2019-03-01T10:46:26.299Z,299.90
2019-03-01T10:47:26.291Z,275.50
2019-03-01T10:48:27.467Z,293.20
2019-03-01T10:49:26.292Z,295.10
2019-03-01T10:50:26.257Z,309.70
2019-03-01T10:51:26.248Z,245.10
2019-03-01T10:52:26.235Z,233.00
2019-03-01T10:53:26.227Z,242.80
2019-03-01T10:54:26.244Z,235.90
2019-03-01T10:55:26.207Z,218.90
2019-03-01T10:56:26.191Z,264.00
2019-03-01T10:57:26.181Z,253.20
2019-03-01T10:58:26.169Z,231.40
2019-03-01T10:59:26.190Z,242.50
2019-03-01T11:00:26.160Z,251.70
2019-03-01T11:01:26.135Z,249.30
2019-03-01T11:02:26.124Z,270.80
2019-03-01T11:03:26.116Z,291.60
2019-03-01T11:04:26.126Z,300.90
2019-03-01T11:05:26.098Z,233.40
2019-03-01T11:06:26.101Z,228.90
2019-03-01T11:07:26.070Z,236.80
2019-03-01T11:08:26.062Z,228.50
2019-03-01T11:09:26.073Z,236.00
2019-03-01T11:10:26.037Z,181.70
2019-03-01T11:11:26.031Z,209.50
2019-03-01T11:12:26.039Z,203.50
2019-03-01T11:13:26.004Z,190.70
2019-03-01T11:14:26.017Z,182.90
2019-03-01T11:15:25.983Z,212.70
2019-03-01T11:16:25.972Z,188.00
2019-03-01T11:17:25.962Z,193.40
2019-03-01T11:18:25.961Z,216.00
2019-03-01T11:19:25.966Z,221.70
2019-03-01T11:20:25.930Z,251.90
2019-03-01T11:21:25.920Z,255.60
2019-03-01T11:22:25.907Z,225.20
2019-03-01T11:23:25.897Z,242.60
2019-03-01T11:24:25.935Z,211.60
2019-03-01T11:25:25.899Z,264.60
2019-03-01T11:26:25.867Z,254.40
2019-03-01T11:27:25.854Z,254.00
2019-03-01T11:28:25.848Z,216.80
2019-03-01T11:29:25.859Z,256.50
2019-03-01T11:30:25.833Z,282.30
2019-03-01T11:31:25.811Z,253.30
2019-03-01T11:32:25.798Z,298.00
2019-03-01T11:33:25.786Z,260.10
2019-03-01T11:34:25.776Z,310.40
2019-03-01T11:35:25.798Z,286.70
2019-03-01T11:36:25.760Z,327.30
2019-03-01T11:37:25.747Z,290.90
2019-03-01T11:38:25.732Z,330.10
2019-03-01T11:39:25.722Z,419.50
2019-03-01T11:40:25.734Z,470.00
2019-03-01T11:41:25.700Z,424.20
2019-03-01T11:42:25.692Z,514.10
2019-03-01T11:43:25.684Z,551.50
2019-03-01T11:44:25.667Z,557.60
2019-03-01T11:45:25.682Z,565.70
2019-03-01T11:46:25.645Z,522.50
2019-03-01T11:47:25.634Z,438.30
2019-03-01T11:48:25.642Z,433.70
2019-03-01T11:49:25.618Z,363.40
2019-03-01T11:50:25.641Z,318.40
2019-03-01T11:51:27.709Z,301.30
2019-03-01T11:52:25.582Z,264.10
2019-03-01T11:53:25.570Z,265.40
2019-03-01T11:54:25.630Z,316.30
2019-03-01T11:55:25.576Z,279.40
2019-03-01T11:56:25.546Z,225.70
2019-03-01T11:57:25.525Z,245.30
2019-03-01T11:58:25.516Z,216.60
2019-03-01T11:59:25.506Z,198.10
2019-03-01T12:00:25.548Z,214.60
2019-03-01T12:01:25.489Z,216.80
2019-03-01T12:02:25.472Z,215.80
2019-03-01T12:03:25.462Z,176.40
2019-03-01T12:04:25.469Z,198.90
2019-03-01T12:05:25.479Z,200.30
2019-03-01T12:06:25.432Z,206.10
2019-03-01T12:07:25.417Z,226.30
2019-03-01T12:08:25.451Z,227.40
2019-03-01T12:09:25.396Z,224.90
2019-03-01T12:10:25.416Z,245.90
2019-03-01T12:11:25.384Z,249.90
2019-03-01T12:12:25.370Z,256.60
2019-03-01T12:13:25.353Z,232.70
2019-03-01T12:14:25.361Z,206.80
2019-03-01T12:15:25.357Z,213.10
2019-03-01T12:16:25.319Z,201.50
2019-03-01T12:17:25.319Z,207.00
2019-03-01T12:18:25.297Z,196.90
2019-03-01T12:19:25.285Z,206.10
2019-03-01T12:20:25.300Z,194.50
2019-03-01T12:21:25.266Z,191.00
2019-03-01T12:22:25.255Z,167.90
2019-03-01T12:23:25.250Z,175.80
2019-03-01T12:24:25.233Z,165.70
2019-03-01T12:25:25.260Z,168.20
2019-03-01T12:26:25.209Z,163.60
2019-03-01T12:27:25.205Z,150.40
2019-03-01T12:28:25.189Z,142.60
2019-03-01T12:29:25.198Z,154.80
2019-03-01T12:30:25.175Z,145.70
2019-03-01T12:31:25.182Z,152.50
2019-03-01T12:32:25.148Z,185.10
2019-03-01T12:33:25.138Z,201.70
2019-03-01T12:34:25.126Z,192.20
2019-03-01T12:35:25.139Z,183.50
2019-03-01T12:36:25.129Z,148.70
2019-03-01T12:37:25.096Z,146.20
2019-03-01T12:38:25.078Z,137.10
2019-03-01T12:39:25.082Z,131.70
2019-03-01T12:40:25.058Z,136.90
2019-03-01T12:41:25.103Z,143.20
2019-03-01T12:42:25.036Z,143.10
2019-03-01T12:43:25.026Z,157.10
2019-03-01T12:44:25.014Z,133.20
2019-03-01T12:45:25.005Z,152.80
2019-03-01T12:46:25.016Z,157.40
2019-03-01T12:47:24.989Z,157.10
2019-03-01T12:48:24.971Z,166.50
2019-03-01T12:49:24.961Z,169.30